sensor_id;sensor_type;location;lat;lon;timestamp;temperature;humidity
33328;DHT22;19692;52.998;9.116;2022-12-18T00:02:16;-8.00;99.90
33328;DHT22;19692;52.998;9.116;2022-12-18T00:04:42;-8.00;99.90
33328;DHT22;19692;52.998;9.116;2022-12-18T00:07:07;-8.00;99.90
33328;DHT22;19692;52.998;9.116;2022-12-18T00:09:33;-8.00;99.90
33328;DHT22;19692;52.998;9.116;2022-12-18T00:11:59;-8.10;99.90
33328;DHT22;19692;52.998;9.116;2022-12-18T00:14:24;-8.10;99.90
33328;DHT22;19692;52.998;9.116;2022-12-18T00:16:50;-8.10;99.90
33328;DHT22;19692;52.998;9.116;2022-12-18T00:19:16;-8.00;99.90
33328;DHT22;19692;52.998;9.116;2022-12-18T00:21:42;-8.10;99.90
33328;DHT22;19692;52.998;9.116;2022-12-18T00:24:10;-8.10;99.90
33328;DHT22;19692;52.998;9.116;2022-12-18T00:26:37;-8.20;99.90
33328;DHT22;19692;52.998;9.116;2022-12-18T00:29:10;-8.10;99.90
33328;DHT22;19692;52.998;9.116;2022-12-18T00:31:37;-8.20;99.90
33328;DHT22;19692;52.998;9.116;2022-12-18T00:34:03;-8.30;99.90
33328;DHT22;19692;52.998;9.116;2022-12-18T00:36:32;-8.30;99.90
33328;DHT22;19692;52.998;9.116;2022-12-18T00:39:00;-8.30;99.90
33328;DHT22;19692;52.998;9.116;2022-12-18T00:41:26;-8.30;99.90
33328;DHT22;19692;52.998;9.116;2022-12-18T00:44:13;-8.40;99.90
33328;DHT22;19692;52.998;9.116;2022-12-18T00:46:39;-8.40;99.90
33328;DHT22;19692;52.998;9.116;2022-12-18T00:49:05;-8.40;99.90
33328;DHT22;19692;52.998;9.116;2022-12-18T00:51:30;-8.50;99.90
33328;DHT22;19692;52.998;9.116;2022-12-18T00:53:56;-8.50;99.90
33328;DHT22;19692;52.998;9.116;2022-12-18T00:56:21;-8.50;99.90
33328;DHT22;19692;52.998;9.116;2022-12-18T00:58:47;-8.50;99.90
33328;DHT22;19692;52.998;9.116;2022-12-18T01:01:13;-8.50;99.90
33328;DHT22;19692;52.998;9.116;2022-12-18T01:03:39;-8.50;99.90
33328;DHT22;19692;52.998;9.116;2022-12-18T01:06:09;-8.60;99.90
33328;DHT22;19692;52.998;9.116;2022-12-18T01:08:36;-8.60;99.90
33328;DHT22;19692;52.998;9.116;2022-12-18T01:11:08;-8.60;99.90
33328;DHT22;19692;52.998;9.116;2022-12-18T01:13:34;-8.60;99.90
33328;DHT22;19692;52.998;9.116;2022-12-18T01:16:00;-8.60;99.90
33328;DHT22;19692;52.998;9.116;2022-12-18T01:18:25;-8.60;99.90
33328;DHT22;19692;52.998;9.116;2022-12-18T01:20:51;-8.60;99.90
33328;DHT22;19692;52.998;9.116;2022-12-18T01:23:16;-8.60;99.90
33328;DHT22;19692;52.998;9.116;2022-12-18T01:25:42;-8.50;99.90
33328;DHT22;19692;52.998;9.116;2022-12-18T01:28:08;-8.50;99.90
33328;DHT22;19692;52.998;9.116;2022-12-18T01:30:33;-8.40;99.90
33328;DHT22;19692;52.998;9.116;2022-12-18T01:32:59;-8.50;99.90
33328;DHT22;19692;52.998;9.116;2022-12-18T01:35:24;-8.50;99.90
33328;DHT22;19692;52.998;9.116;2022-12-18T01:37:54;-8.60;99.90
33328;DHT22;19692;52.998;9.116;2022-12-18T01:40:20;-8.60;99.90
33328;DHT22;19692;52.998;9.116;2022-12-18T01:42:52;-8.60;99.90
33328;DHT22;19692;52.998;9.116;2022-12-18T01:47:45;-8.60;99.90
33328;DHT22;19692;52.998;9.116;2022-12-18T01:50:19;-8.70;99.90
33328;DHT22;19692;52.998;9.116;2022-12-18T01:52:55;-8.70;99.90
33328;DHT22;19692;52.998;9.116;2022-12-18T01:55:25;-8.70;99.90
33328;DHT22;19692;52.998;9.116;2022-12-18T01:57:57;-8.80;99.90
33328;DHT22;19692;52.998;9.116;2022-12-18T02:00:25;-8.80;99.90
33328;DHT22;19692;52.998;9.116;2022-12-18T02:02:51;-8.80;99.90
33328;DHT22;19692;52.998;9.116;2022-12-18T02:08:20;-8.60;99.90
33328;DHT22;19692;52.998;9.116;2022-12-18T02:18:47;-8.60;99.90
33328;DHT22;19692;52.998;9.116;2022-12-18T02:24:38;-8.50;99.90
33328;DHT22;19692;52.998;9.116;2022-12-18T02:27:07;-8.50;99.90
33328;DHT22;19692;52.998;9.116;2022-12-18T02:29:50;-8.40;99.90
33328;DHT22;19692;52.998;9.116;2022-12-18T02:32:22;-8.40;99.90
33328;DHT22;19692;52.998;9.116;2022-12-18T02:34:51;-8.40;99.90
33328;DHT22;19692;52.998;9.116;2022-12-18T02:37:18;-8.50;99.90
33328;DHT22;19692;52.998;9.116;2022-12-18T02:39:47;-8.50;99.90
33328;DHT22;19692;52.998;9.116;2022-12-18T02:42:13;-8.50;99.90
33328;DHT22;19692;52.998;9.116;2022-12-18T02:44:48;-8.40;99.90
33328;DHT22;19692;52.998;9.116;2022-12-18T02:47:17;-8.40;99.90
33328;DHT22;19692;52.998;9.116;2022-12-18T02:53:36;-8.50;99.90
33328;DHT22;19692;52.998;9.116;2022-12-18T02:56:15;-8.40;99.90
33328;DHT22;19692;52.998;9.116;2022-12-18T02:59:06;-8.40;99.90
33328;DHT22;19692;52.998;9.116;2022-12-18T03:06:46;-8.30;99.90
33328;DHT22;19692;52.998;9.116;2022-12-18T03:09:19;-8.30;99.90
33328;DHT22;19692;52.998;9.116;2022-12-18T03:11:52;-8.30;99.90
33328;DHT22;19692;52.998;9.116;2022-12-18T03:14:38;-8.30;99.90
33328;DHT22;19692;52.998;9.116;2022-12-18T03:17:09;-8.30;99.90
33328;DHT22;19692;52.998;9.116;2022-12-18T03:19:35;-8.30;99.90
33328;DHT22;19692;52.998;9.116;2022-12-18T03:22:07;-8.40;99.90
33328;DHT22;19692;52.998;9.116;2022-12-18T03:24:33;-8.40;99.90
33328;DHT22;19692;52.998;9.116;2022-12-18T03:27:06;-8.40;99.90
33328;DHT22;19692;52.998;9.116;2022-12-18T03:30:08;-8.40;99.90
33328;DHT22;19692;52.998;9.116;2022-12-18T03:32:47;-8.50;99.90
33328;DHT22;19692;52.998;9.116;2022-12-18T03:35:18;-8.50;99.90
33328;DHT22;19692;52.998;9.116;2022-12-18T03:37:45;-8.50;99.90
33328;DHT22;19692;52.998;9.116;2022-12-18T03:40:11;-8.50;99.90
33328;DHT22;19692;52.998;9.116;2022-12-18T03:42:52;-8.60;99.90
33328;DHT22;19692;52.998;9.116;2022-12-18T03:48:25;-8.60;99.90
33328;DHT22;19692;52.998;9.116;2022-12-18T03:51:05;-8.70;99.90
33328;DHT22;19692;52.998;9.116;2022-12-18T03:53:55;-8.70;99.90
33328;DHT22;19692;52.998;9.116;2022-12-18T03:56:25;-8.70;99.90
33328;DHT22;19692;52.998;9.116;2022-12-18T03:58:53;-8.70;99.90
33328;DHT22;19692;52.998;9.116;2022-12-18T04:01:22;-8.70;99.90
33328;DHT22;19692;52.998;9.116;2022-12-18T04:03:49;-8.80;99.90
33328;DHT22;19692;52.998;9.116;2022-12-18T04:06:16;-8.80;99.90
33328;DHT22;19692;52.998;9.116;2022-12-18T04:08:42;-8.80;99.90
33328;DHT22;19692;52.998;9.116;2022-12-18T04:11:08;-8.90;99.90
33328;DHT22;19692;52.998;9.116;2022-12-18T04:13:36;-8.90;99.90
33328;DHT22;19692;52.998;9.116;2022-12-18T04:16:03;-8.90;99.90
33328;DHT22;19692;52.998;9.116;2022-12-18T04:18:29;-8.90;99.90
33328;DHT22;19692;52.998;9.116;2022-12-18T04:20:57;-8.90;99.90
33328;DHT22;19692;52.998;9.116;2022-12-18T04:23:23;-8.80;99.90
33328;DHT22;19692;52.998;9.116;2022-12-18T04:25:49;-8.70;99.90
33328;DHT22;19692;52.998;9.116;2022-12-18T04:28:14;-8.70;99.90
33328;DHT22;19692;52.998;9.116;2022-12-18T04:30:40;-8.60;99.90
33328;DHT22;19692;52.998;9.116;2022-12-18T04:33:13;-8.50;99.90
33328;DHT22;19692;52.998;9.116;2022-12-18T04:35:39;-8.50;99.90
33328;DHT22;19692;52.998;9.116;2022-12-18T04:38:06;-8.40;99.90
33328;DHT22;19692;52.998;9.116;2022-12-18T04:40:34;-8.40;99.90
33328;DHT22;19692;52.998;9.116;2022-12-18T04:42:59;-8.30;99.90
33328;DHT22;19692;52.998;9.116;2022-12-18T04:45:25;-8.40;99.90
33328;DHT22;19692;52.998;9.116;2022-12-18T04:47:51;-8.40;99.90
33328;DHT22;19692;52.998;9.116;2022-12-18T04:50:17;-8.30;99.90
33328;DHT22;19692;52.998;9.116;2022-12-18T04:52:42;-8.30;99.90
33328;DHT22;19692;52.998;9.116;2022-12-18T04:55:08;-8.20;99.90
33328;DHT22;19692;52.998;9.116;2022-12-18T04:57:34;-8.20;99.90
33328;DHT22;19692;52.998;9.116;2022-12-18T04:59:59;-8.20;99.90
33328;DHT22;19692;52.998;9.116;2022-12-18T05:02:25;-8.20;99.90
33328;DHT22;19692;52.998;9.116;2022-12-18T05:04:51;-8.20;99.90
33328;DHT22;19692;52.998;9.116;2022-12-18T05:07:16;-8.20;99.90
33328;DHT22;19692;52.998;9.116;2022-12-18T05:09:42;-8.20;99.90
33328;DHT22;19692;52.998;9.116;2022-12-18T05:12:07;-8.20;99.90
33328;DHT22;19692;52.998;9.116;2022-12-18T05:14:33;-8.20;99.90
33328;DHT22;19692;52.998;9.116;2022-12-18T05:16:58;-8.20;99.90
33328;DHT22;19692;52.998;9.116;2022-12-18T05:19:24;-8.20;99.90
33328;DHT22;19692;52.998;9.116;2022-12-18T05:21:50;-8.20;99.90
33328;DHT22;19692;52.998;9.116;2022-12-18T05:24:15;-8.20;99.90
33328;DHT22;19692;52.998;9.116;2022-12-18T05:26:41;-8.30;99.90
33328;DHT22;19692;52.998;9.116;2022-12-18T05:29:07;-8.40;99.90
33328;DHT22;19692;52.998;9.116;2022-12-18T05:31:32;-8.40;99.90
33328;DHT22;19692;52.998;9.116;2022-12-18T05:33:58;-8.40;99.90
33328;DHT22;19692;52.998;9.116;2022-12-18T05:36:24;-8.40;99.90
33328;DHT22;19692;52.998;9.116;2022-12-18T05:38:49;-8.40;99.90
33328;DHT22;19692;52.998;9.116;2022-12-18T05:41:15;-8.30;99.90
33328;DHT22;19692;52.998;9.116;2022-12-18T05:43:41;-8.30;99.90
33328;DHT22;19692;52.998;9.116;2022-12-18T05:46:11;-8.30;99.90
33328;DHT22;19692;52.998;9.116;2022-12-18T05:48:38;-8.30;99.90
33328;DHT22;19692;52.998;9.116;2022-12-18T05:51:09;-8.30;99.90
33328;DHT22;19692;52.998;9.116;2022-12-18T05:53:36;-8.30;99.90
33328;DHT22;19692;52.998;9.116;2022-12-18T05:56:06;-8.30;99.90
33328;DHT22;19692;52.998;9.116;2022-12-18T05:58:32;-8.20;99.90
33328;DHT22;19692;52.998;9.116;2022-12-18T06:01:07;-8.20;99.90
33328;DHT22;19692;52.998;9.116;2022-12-18T06:03:40;-8.20;99.90
33328;DHT22;19692;52.998;9.116;2022-12-18T06:06:32;-8.20;99.90
33328;DHT22;19692;52.998;9.116;2022-12-18T06:08:58;-8.20;99.90
33328;DHT22;19692;52.998;9.116;2022-12-18T06:11:25;-8.30;99.90
33328;DHT22;19692;52.998;9.116;2022-12-18T06:13:53;-8.30;99.90
33328;DHT22;19692;52.998;9.116;2022-12-18T06:16:18;-8.20;99.90
33328;DHT22;19692;52.998;9.116;2022-12-18T06:18:44;-8.20;99.90
33328;DHT22;19692;52.998;9.116;2022-12-18T06:21:10;-8.20;99.90
33328;DHT22;19692;52.998;9.116;2022-12-18T06:23:35;-8.20;99.90
33328;DHT22;19692;52.998;9.116;2022-12-18T06:26:09;-8.20;99.90
33328;DHT22;19692;52.998;9.116;2022-12-18T06:28:35;-8.20;99.90
33328;DHT22;19692;52.998;9.116;2022-12-18T06:31:03;-8.20;99.90
33328;DHT22;19692;52.998;9.116;2022-12-18T06:33:29;-8.20;99.90
33328;DHT22;19692;52.998;9.116;2022-12-18T06:36:01;-8.10;99.90
33328;DHT22;19692;52.998;9.116;2022-12-18T06:38:27;-8.10;99.90
33328;DHT22;19692;52.998;9.116;2022-12-18T06:40:53;-8.10;99.90
33328;DHT22;19692;52.998;9.116;2022-12-18T06:43:18;-8.10;99.90
33328;DHT22;19692;52.998;9.116;2022-12-18T06:45:45;-8.10;99.90
33328;DHT22;19692;52.998;9.116;2022-12-18T06:48:14;-8.10;99.90
33328;DHT22;19692;52.998;9.116;2022-12-18T06:50:42;-8.10;99.90
33328;DHT22;19692;52.998;9.116;2022-12-18T06:53:08;-8.00;99.90
33328;DHT22;19692;52.998;9.116;2022-12-18T06:55:33;-8.10;99.90
33328;DHT22;19692;52.998;9.116;2022-12-18T06:57:59;-8.00;99.90
33328;DHT22;19692;52.998;9.116;2022-12-18T07:00:24;-8.10;99.90
33328;DHT22;19692;52.998;9.116;2022-12-18T07:02:50;-8.10;99.90
33328;DHT22;19692;52.998;9.116;2022-12-18T07:05:15;-8.10;99.90
33328;DHT22;19692;52.998;9.116;2022-12-18T07:07:41;-8.10;99.90
33328;DHT22;19692;52.998;9.116;2022-12-18T07:10:07;-8.10;99.90
33328;DHT22;19692;52.998;9.116;2022-12-18T07:12:32;-8.10;99.90
33328;DHT22;19692;52.998;9.116;2022-12-18T07:14:58;-8.10;99.90
33328;DHT22;19692;52.998;9.116;2022-12-18T07:17:24;-8.10;99.90
33328;DHT22;19692;52.998;9.116;2022-12-18T07:19:49;-8.10;99.90
33328;DHT22;19692;52.998;9.116;2022-12-18T07:22:15;-8.10;99.90
33328;DHT22;19692;52.998;9.116;2022-12-18T07:24:40;-8.10;99.90
33328;DHT22;19692;52.998;9.116;2022-12-18T07:27:06;-8.00;99.90
33328;DHT22;19692;52.998;9.116;2022-12-18T07:29:32;-8.00;99.90
33328;DHT22;19692;52.998;9.116;2022-12-18T07:31:57;-8.00;99.90
33328;DHT22;19692;52.998;9.116;2022-12-18T07:34:23;-8.00;99.90
33328;DHT22;19692;52.998;9.116;2022-12-18T07:36:48;-8.00;99.90
33328;DHT22;19692;52.998;9.116;2022-12-18T07:39:14;-7.90;99.90
33328;DHT22;19692;52.998;9.116;2022-12-18T07:41:40;-7.90;99.90
33328;DHT22;19692;52.998;9.116;2022-12-18T07:44:12;-7.90;99.90
33328;DHT22;19692;52.998;9.116;2022-12-18T07:46:37;-7.90;99.90
33328;DHT22;19692;52.998;9.116;2022-12-18T07:49:03;-7.90;99.90
33328;DHT22;19692;52.998;9.116;2022-12-18T07:51:29;-7.90;99.90
33328;DHT22;19692;52.998;9.116;2022-12-18T07:53:55;-7.90;99.90
33328;DHT22;19692;52.998;9.116;2022-12-18T07:56:22;-7.90;99.90
33328;DHT22;19692;52.998;9.116;2022-12-18T07:58:48;-7.90;99.90
33328;DHT22;19692;52.998;9.116;2022-12-18T08:01:13;-7.80;99.90
33328;DHT22;19692;52.998;9.116;2022-12-18T08:03:40;-7.80;99.90
33328;DHT22;19692;52.998;9.116;2022-12-18T08:06:07;-7.70;99.90
33328;DHT22;19692;52.998;9.116;2022-12-18T08:08:34;-7.70;99.90
33328;DHT22;19692;52.998;9.116;2022-12-18T08:11:00;-7.70;99.90
33328;DHT22;19692;52.998;9.116;2022-12-18T08:13:27;-7.60;99.90
33328;DHT22;19692;52.998;9.116;2022-12-18T08:16:11;-7.60;99.90
33328;DHT22;19692;52.998;9.116;2022-12-18T08:18:37;-7.50;99.90
33328;DHT22;19692;52.998;9.116;2022-12-18T08:21:16;-7.50;99.90
33328;DHT22;19692;52.998;9.116;2022-12-18T08:23:42;-7.40;99.90
33328;DHT22;19692;52.998;9.116;2022-12-18T08:26:08;-7.40;99.90
33328;DHT22;19692;52.998;9.116;2022-12-18T08:28:34;-7.40;99.90
33328;DHT22;19692;52.998;9.116;2022-12-18T08:31:00;-7.30;99.90
33328;DHT22;19692;52.998;9.116;2022-12-18T08:33:25;-7.30;99.90
33328;DHT22;19692;52.998;9.116;2022-12-18T08:35:51;-7.30;99.90
33328;DHT22;19692;52.998;9.116;2022-12-18T08:38:17;-7.20;99.90
33328;DHT22;19692;52.998;9.116;2022-12-18T08:40:43;-7.10;99.90
33328;DHT22;19692;52.998;9.116;2022-12-18T08:43:12;-7.10;99.90
33328;DHT22;19692;52.998;9.116;2022-12-18T08:45:56;-7.00;99.90
33328;DHT22;19692;52.998;9.116;2022-12-18T08:48:22;-7.00;99.90
33328;DHT22;19692;52.998;9.116;2022-12-18T08:50:55;-6.90;99.90
33328;DHT22;19692;52.998;9.116;2022-12-18T08:53:24;-6.90;99.90
33328;DHT22;19692;52.998;9.116;2022-12-18T08:55:49;-6.90;99.90
33328;DHT22;19692;52.998;9.116;2022-12-18T08:58:15;-6.90;99.90
33328;DHT22;19692;52.998;9.116;2022-12-18T09:00:41;-6.90;99.90
33328;DHT22;19692;52.998;9.116;2022-12-18T09:03:15;-6.80;99.90
33328;DHT22;19692;52.998;9.116;2022-12-18T09:05:41;-6.70;99.90
33328;DHT22;19692;52.998;9.116;2022-12-18T09:08:07;-6.60;99.90
33328;DHT22;19692;52.998;9.116;2022-12-18T09:10:33;-6.50;99.90
33328;DHT22;19692;52.998;9.116;2022-12-18T09:12:58;-6.40;99.90
33328;DHT22;19692;52.998;9.116;2022-12-18T09:15:24;-6.30;99.90
33328;DHT22;19692;52.998;9.116;2022-12-18T09:17:50;-6.30;99.90
33328;DHT22;19692;52.998;9.116;2022-12-18T09:20:18;-6.20;99.90
33328;DHT22;19692;52.998;9.116;2022-12-18T09:22:44;-6.00;99.90
33328;DHT22;19692;52.998;9.116;2022-12-18T09:25:10;-5.90;99.90
33328;DHT22;19692;52.998;9.116;2022-12-18T09:27:36;-5.70;99.90
33328;DHT22;19692;52.998;9.116;2022-12-18T09:30:02;-5.60;99.90
33328;DHT22;19692;52.998;9.116;2022-12-18T09:32:28;-5.60;99.90
33328;DHT22;19692;52.998;9.116;2022-12-18T09:34:53;-5.50;99.90
33328;DHT22;19692;52.998;9.116;2022-12-18T09:37:19;-5.40;99.90
33328;DHT22;19692;52.998;9.116;2022-12-18T09:39:44;-5.30;99.90
33328;DHT22;19692;52.998;9.116;2022-12-18T09:42:20;-5.20;99.90
33328;DHT22;19692;52.998;9.116;2022-12-18T09:44:50;-5.10;99.90
33328;DHT22;19692;52.998;9.116;2022-12-18T09:47:30;-4.90;99.90
33328;DHT22;19692;52.998;9.116;2022-12-18T09:50:02;-4.90;99.90
33328;DHT22;19692;52.998;9.116;2022-12-18T09:52:43;-4.80;99.90
33328;DHT22;19692;52.998;9.116;2022-12-18T09:55:40;-4.70;99.90
33328;DHT22;19692;52.998;9.116;2022-12-18T09:58:15;-4.70;99.90
33328;DHT22;19692;52.998;9.116;2022-12-18T10:00:47;-4.70;99.90
33328;DHT22;19692;52.998;9.116;2022-12-18T10:03:14;-4.60;99.90
33328;DHT22;19692;52.998;9.116;2022-12-18T10:05:52;-4.60;99.90
33328;DHT22;19692;52.998;9.116;2022-12-18T10:10:56;-4.50;99.90
33328;DHT22;19692;52.998;9.116;2022-12-18T10:13:44;-4.50;99.90
33328;DHT22;19692;52.998;9.116;2022-12-18T10:16:17;-4.40;99.90
33328;DHT22;19692;52.998;9.116;2022-12-18T10:19:17;-4.30;99.90
33328;DHT22;19692;52.998;9.116;2022-12-18T10:22:38;-4.20;99.90
33328;DHT22;19692;52.998;9.116;2022-12-18T10:25:22;-4.20;99.90
33328;DHT22;19692;52.998;9.116;2022-12-18T10:27:52;-4.20;99.90
33328;DHT22;19692;52.998;9.116;2022-12-18T10:30:21;-4.10;99.90
33328;DHT22;19692;52.998;9.116;2022-12-18T10:32:47;-3.80;99.90
33328;DHT22;19692;52.998;9.116;2022-12-18T10:35:24;-3.60;99.90
33328;DHT22;19692;52.998;9.116;2022-12-18T10:43:28;-3.10;99.90
33328;DHT22;19692;52.998;9.116;2022-12-18T10:48:47;-3.10;99.90
33328;DHT22;19692;52.998;9.116;2022-12-18T10:51:30;-3.00;99.90
33328;DHT22;19692;52.998;9.116;2022-12-18T10:54:04;-3.20;99.90
33328;DHT22;19692;52.998;9.116;2022-12-18T10:56:33;-3.20;99.90
33328;DHT22;19692;52.998;9.116;2022-12-18T10:59:05;-3.30;99.90
33328;DHT22;19692;52.998;9.116;2022-12-18T11:01:51;-3.40;99.90
33328;DHT22;19692;52.998;9.116;2022-12-18T11:04:23;-3.30;99.90
33328;DHT22;19692;52.998;9.116;2022-12-18T11:09:34;-3.30;99.90
33328;DHT22;19692;52.998;9.116;2022-12-18T11:12:14;-3.30;99.90
33328;DHT22;19692;52.998;9.116;2022-12-18T11:14:49;-3.20;99.90
33328;DHT22;19692;52.998;9.116;2022-12-18T11:17:31;-3.10;99.90
33328;DHT22;19692;52.998;9.116;2022-12-18T11:20:01;-2.90;99.90
33328;DHT22;19692;52.998;9.116;2022-12-18T11:25:16;-2.40;99.90
33328;DHT22;19692;52.998;9.116;2022-12-18T11:27:48;-2.20;99.90
33328;DHT22;19692;52.998;9.116;2022-12-18T11:30:35;-1.60;99.90
33328;DHT22;19692;52.998;9.116;2022-12-18T11:33:09;-1.20;99.90
33328;DHT22;19692;52.998;9.116;2022-12-18T11:35:44;-0.80;99.90
33328;DHT22;19692;52.998;9.116;2022-12-18T11:38:26;-1.10;99.90
33328;DHT22;19692;52.998;9.116;2022-12-18T11:43:41;-1.00;99.90
33328;DHT22;19692;52.998;9.116;2022-12-18T11:46:16;-0.60;99.90
33328;DHT22;19692;52.998;9.116;2022-12-18T11:51:41;0.10;99.90
33328;DHT22;19692;52.998;9.116;2022-12-18T11:54:12;0.50;99.90
33328;DHT22;19692;52.998;9.116;2022-12-18T11:56:53;0.40;99.90
33328;DHT22;19692;52.998;9.116;2022-12-18T12:13:41;0.00;99.90
33328;DHT22;19692;52.998;9.116;2022-12-18T12:18:50;-0.60;99.90
33328;DHT22;19692;52.998;9.116;2022-12-18T12:21:39;-0.90;99.90
33328;DHT22;19692;52.998;9.116;2022-12-18T12:30:16;-0.80;99.90
33328;DHT22;19692;52.998;9.116;2022-12-18T12:35:25;-1.00;99.90
33328;DHT22;19692;52.998;9.116;2022-12-18T12:38:05;-1.10;99.90
33328;DHT22;19692;52.998;9.116;2022-12-18T12:40:36;-1.20;99.90
33328;DHT22;19692;52.998;9.116;2022-12-18T12:43:33;-1.40;99.90
33328;DHT22;19692;52.998;9.116;2022-12-18T12:46:06;-1.40;99.90
33328;DHT22;19692;52.998;9.116;2022-12-18T12:51:21;-1.50;99.90
33328;DHT22;19692;52.998;9.116;2022-12-18T12:53:48;-1.60;99.90
33328;DHT22;19692;52.998;9.116;2022-12-18T12:56:20;-1.70;99.90
33328;DHT22;19692;52.998;9.116;2022-12-18T12:59:12;-1.60;99.90
33328;DHT22;19692;52.998;9.116;2022-12-18T13:07:34;-1.80;99.90
33328;DHT22;19692;52.998;9.116;2022-12-18T13:12:59;-1.90;99.90
33328;DHT22;19692;52.998;9.116;2022-12-18T13:15:48;-1.90;99.90
33328;DHT22;19692;52.998;9.116;2022-12-18T13:18:23;-1.90;99.90
33328;DHT22;19692;52.998;9.116;2022-12-18T13:25:57;-2.10;99.90
33328;DHT22;19692;52.998;9.116;2022-12-18T13:36:47;-2.00;99.90
33328;DHT22;19692;52.998;9.116;2022-12-18T13:42:37;-2.00;99.90
33328;DHT22;19692;52.998;9.116;2022-12-18T13:44:38;-2.00;99.90
33328;DHT22;19692;52.998;9.116;2022-12-18T13:47:32;-2.00;99.90
33328;DHT22;19692;52.998;9.116;2022-12-18T13:49:57;-2.00;99.90
33328;DHT22;19692;52.998;9.116;2022-12-18T13:52:35;-1.90;99.90
33328;DHT22;19692;52.998;9.116;2022-12-18T13:55:07;-2.00;99.90
33328;DHT22;19692;52.998;9.116;2022-12-18T13:57:40;-2.00;99.90
33328;DHT22;19692;52.998;9.116;2022-12-18T14:00:25;-2.00;99.90
33328;DHT22;19692;52.998;9.116;2022-12-18T14:02:52;-2.00;99.90
33328;DHT22;19692;52.998;9.116;2022-12-18T14:05:32;-2.00;99.90
33328;DHT22;19692;52.998;9.116;2022-12-18T14:08:11;-2.00;99.90
33328;DHT22;19692;52.998;9.116;2022-12-18T14:10:42;-2.00;99.90
33328;DHT22;19692;52.998;9.116;2022-12-18T14:13:11;-2.00;99.90
33328;DHT22;19692;52.998;9.116;2022-12-18T14:15:46;-2.00;99.90
33328;DHT22;19692;52.998;9.116;2022-12-18T14:18:26;-2.00;99.90
33328;DHT22;19692;52.998;9.116;2022-12-18T14:20:59;-2.00;99.90
33328;DHT22;19692;52.998;9.116;2022-12-18T14:23:36;-2.10;99.90
33328;DHT22;19692;52.998;9.116;2022-12-18T14:26:17;-2.00;99.90
33328;DHT22;19692;52.998;9.116;2022-12-18T14:29:29;-2.00;99.90
33328;DHT22;19692;52.998;9.116;2022-12-18T14:32:19;-2.00;99.90
33328;DHT22;19692;52.998;9.116;2022-12-18T14:34:48;-2.00;99.90
33328;DHT22;19692;52.998;9.116;2022-12-18T14:37:16;-2.00;99.90
33328;DHT22;19692;52.998;9.116;2022-12-18T14:40:12;-2.10;99.90
33328;DHT22;19692;52.998;9.116;2022-12-18T14:42:38;-2.10;99.90
33328;DHT22;19692;52.998;9.116;2022-12-18T14:45:32;-2.10;99.90
33328;DHT22;19692;52.998;9.116;2022-12-18T14:48:11;-2.00;99.90
33328;DHT22;19692;52.998;9.116;2022-12-18T14:50:41;-2.10;99.90
33328;DHT22;19692;52.998;9.116;2022-12-18T14:53:22;-2.10;99.90
33328;DHT22;19692;52.998;9.116;2022-12-18T14:55:48;-2.10;99.90
33328;DHT22;19692;52.998;9.116;2022-12-18T14:58:16;-2.10;99.90
33328;DHT22;19692;52.998;9.116;2022-12-18T15:00:43;-2.20;99.90
33328;DHT22;19692;52.998;9.116;2022-12-18T15:03:08;-2.10;99.90
33328;DHT22;19692;52.998;9.116;2022-12-18T15:05:35;-2.20;99.90
33328;DHT22;19692;52.998;9.116;2022-12-18T15:08:02;-2.20;99.90
33328;DHT22;19692;52.998;9.116;2022-12-18T15:10:30;-2.20;99.90
33328;DHT22;19692;52.998;9.116;2022-12-18T15:18:14;-2.20;99.90
33328;DHT22;19692;52.998;9.116;2022-12-18T15:20:57;-2.20;99.90
33328;DHT22;19692;52.998;9.116;2022-12-18T15:26:09;-2.30;99.90
33328;DHT22;19692;52.998;9.116;2022-12-18T15:28:55;-2.30;99.90
33328;DHT22;19692;52.998;9.116;2022-12-18T15:31:34;-2.40;99.90
33328;DHT22;19692;52.998;9.116;2022-12-18T15:34:18;-2.30;99.90
33328;DHT22;19692;52.998;9.116;2022-12-18T15:36:46;-2.30;99.90
33328;DHT22;19692;52.998;9.116;2022-12-18T15:39:12;-2.30;99.90
33328;DHT22;19692;52.998;9.116;2022-12-18T15:41:39;-2.20;99.90
33328;DHT22;19692;52.998;9.116;2022-12-18T15:44:23;-2.10;99.90
33328;DHT22;19692;52.998;9.116;2022-12-18T15:46:49;-2.00;99.90
33328;DHT22;19692;52.998;9.116;2022-12-18T15:49:14;-2.00;99.90
33328;DHT22;19692;52.998;9.116;2022-12-18T15:51:40;-2.00;99.90
33328;DHT22;19692;52.998;9.116;2022-12-18T15:54:10;-2.00;99.90
33328;DHT22;19692;52.998;9.116;2022-12-18T15:56:36;-1.90;99.90
33328;DHT22;19692;52.998;9.116;2022-12-18T15:59:22;-1.90;99.90
33328;DHT22;19692;52.998;9.116;2022-12-18T16:01:50;-1.90;99.90
33328;DHT22;19692;52.998;9.116;2022-12-18T16:04:17;-1.90;99.90
33328;DHT22;19692;52.998;9.116;2022-12-18T16:06:45;-1.90;99.90
33328;DHT22;19692;52.998;9.116;2022-12-18T16:09:11;-1.80;99.90
33328;DHT22;19692;52.998;9.116;2022-12-18T16:11:39;-1.80;99.90
33328;DHT22;19692;52.998;9.116;2022-12-18T16:14:23;-1.90;99.90
33328;DHT22;19692;52.998;9.116;2022-12-18T16:16:56;-1.90;99.90
33328;DHT22;19692;52.998;9.116;2022-12-18T16:19:22;-1.90;99.90
33328;DHT22;19692;52.998;9.116;2022-12-18T16:21:48;-1.90;99.90
33328;DHT22;19692;52.998;9.116;2022-12-18T16:24:21;-1.90;99.90
33328;DHT22;19692;52.998;9.116;2022-12-18T16:26:50;-2.00;99.90
33328;DHT22;19692;52.998;9.116;2022-12-18T16:29:17;-2.00;99.90
33328;DHT22;19692;52.998;9.116;2022-12-18T16:31:43;-2.00;99.90
33328;DHT22;19692;52.998;9.116;2022-12-18T16:34:13;-2.10;99.90
33328;DHT22;19692;52.998;9.116;2022-12-18T16:36:39;-2.10;99.90
33328;DHT22;19692;52.998;9.116;2022-12-18T16:39:05;-2.10;99.90
33328;DHT22;19692;52.998;9.116;2022-12-18T16:41:31;-2.10;99.90
33328;DHT22;19692;52.998;9.116;2022-12-18T16:43:57;-2.20;99.90
33328;DHT22;19692;52.998;9.116;2022-12-18T16:46:23;-2.10;99.90
33328;DHT22;19692;52.998;9.116;2022-12-18T16:48:49;-2.10;99.90
33328;DHT22;19692;52.998;9.116;2022-12-18T16:51:14;-2.10;99.90
33328;DHT22;19692;52.998;9.116;2022-12-18T16:53:40;-2.10;99.90
33328;DHT22;19692;52.998;9.116;2022-12-18T16:56:06;-2.20;99.90
33328;DHT22;19692;52.998;9.116;2022-12-18T16:58:32;-2.20;99.90
33328;DHT22;19692;52.998;9.116;2022-12-18T17:00:57;-2.20;99.90
33328;DHT22;19692;52.998;9.116;2022-12-18T17:03:23;-2.20;99.90
33328;DHT22;19692;52.998;9.116;2022-12-18T17:05:49;-2.10;99.90
33328;DHT22;19692;52.998;9.116;2022-12-18T17:08:14;-2.10;99.90
33328;DHT22;19692;52.998;9.116;2022-12-18T17:10:40;-2.20;99.90
33328;DHT22;19692;52.998;9.116;2022-12-18T17:13:05;-2.20;99.90
33328;DHT22;19692;52.998;9.116;2022-12-18T17:15:34;-2.10;99.90
33328;DHT22;19692;52.998;9.116;2022-12-18T17:18:00;-2.00;99.90
33328;DHT22;19692;52.998;9.116;2022-12-18T17:20:27;-2.10;99.90
33328;DHT22;19692;52.998;9.116;2022-12-18T17:22:52;-2.00;99.90
33328;DHT22;19692;52.998;9.116;2022-12-18T17:25:18;-2.00;99.90
33328;DHT22;19692;52.998;9.116;2022-12-18T17:27:44;-2.00;99.90
33328;DHT22;19692;52.998;9.116;2022-12-18T17:30:10;-2.00;99.90
33328;DHT22;19692;52.998;9.116;2022-12-18T17:32:36;-1.90;99.90
33328;DHT22;19692;52.998;9.116;2022-12-18T17:35:01;-2.00;99.90
33328;DHT22;19692;52.998;9.116;2022-12-18T17:37:27;-2.00;99.90
33328;DHT22;19692;52.998;9.116;2022-12-18T17:39:52;-2.00;99.90
33328;DHT22;19692;52.998;9.116;2022-12-18T17:42:18;-2.00;99.90